Terminal Aerodrome Forecast
Issued by NWS

Home | Current Version | Previous Version | Graphics & Text | Print | Product List | Glossary On
Versions: 1 2 3 4 5 6 7 8 9 10 11 12 13 14 15
000
FTUS43 KMPX 270153 AAA
TAFRNH
TAF AMD
KRNH 270153Z 2702/2724 36005KT P6SM OVC009
     FM270400 34004KT 6SM BR OVC007
     FM271500 02006KT P6SM OVC015
     FM271800 02007KT P6SM OVC025
     FM272000 02007KT P6SM BKN100=

USA.gov is the U.S. government's official web portal to all federal, state and local government web resources and services.